createdAt,value
2019-05-12T00:00:48.399Z,2.07
2019-05-12T00:03:19.389Z,2.17
2019-05-12T00:05:50.300Z,2.53
2019-05-12T00:08:21.254Z,2.65
2019-05-12T00:10:51.836Z,2.70
2019-05-12T00:13:22.483Z,2.20
2019-05-12T00:15:53.096Z,2.43
2019-05-12T00:18:23.648Z,2.70
2019-05-12T00:20:54.400Z,2.47
2019-05-12T00:23:28.746Z,2.33
2019-05-12T00:25:58.742Z,2.73
2019-05-12T00:28:30.946Z,2.58
2019-05-12T00:31:01.574Z,2.50
2019-05-12T00:33:32.405Z,2.43
2019-05-12T00:36:03.306Z,2.70
2019-05-12T00:38:34.152Z,2.52
2019-05-12T00:41:04.738Z,3.10
2019-05-12T00:43:35.369Z,2.67
2019-05-12T00:46:07.892Z,2.37
2019-05-12T00:48:38.398Z,2.53
2019-05-12T00:51:09.272Z,2.40
2019-05-12T00:53:43.293Z,3.00
2019-05-12T00:56:12.296Z,2.40
2019-05-12T00:58:42.922Z,3.23
2019-05-12T01:01:13.657Z,3.00
2019-05-12T01:03:44.512Z,2.83
2019-05-12T01:06:17.697Z,3.25
2019-05-12T01:08:48.427Z,2.80
2019-05-12T01:11:19.649Z,3.08
2019-05-12T01:13:50.388Z,3.10
2019-05-12T01:16:21.592Z,2.92
2019-05-12T01:18:52.442Z,2.95
2019-05-12T01:21:23.002Z,3.17
2019-05-12T01:23:59.830Z,3.40
2019-05-12T01:26:28.337Z,3.40
2019-05-12T01:28:58.380Z,2.80
2019-05-12T01:31:32.798Z,3.27
2019-05-12T01:34:03.491Z,3.50
2019-05-12T01:36:34.069Z,3.53
2019-05-12T01:39:05.274Z,3.37
2019-05-12T01:41:35.866Z,3.20
2019-05-12T01:44:08.627Z,3.47
2019-05-12T01:46:38.796Z,3.20
2019-05-12T01:49:09.615Z,3.23
2019-05-12T01:51:40.507Z,3.50
2019-05-12T01:54:15.076Z,3.70
2019-05-12T01:56:44.672Z,3.10
2019-05-12T01:59:15.740Z,3.70
2019-05-12T02:01:48.641Z,3.20
2019-05-12T02:04:19.007Z,4.10
2019-05-12T02:06:49.644Z,3.43
2019-05-12T02:09:22.218Z,3.67
2019-05-12T02:11:52.875Z,3.80
2019-05-12T02:14:23.785Z,3.75
2019-05-12T02:16:54.478Z,3.07
2019-05-12T02:19:25.312Z,3.67
2019-05-12T02:21:57.853Z,3.87
2019-05-12T02:24:30.556Z,3.25
2019-05-12T02:27:00.846Z,3.67
2019-05-12T02:29:31.555Z,3.80
2019-05-12T02:32:02.196Z,3.57
2019-05-12T02:34:34.986Z,3.70
2019-05-12T02:37:05.529Z,4.20
2019-05-12T02:39:36.581Z,4.33
2019-05-12T02:42:07.184Z,3.90
2019-05-12T02:44:37.842Z,4.20
2019-05-12T02:47:08.648Z,3.80
2019-05-12T02:49:39.280Z,3.97
2019-05-12T02:52:09.946Z,3.80
2019-05-12T02:54:51.851Z,4.10
2019-05-12T02:57:17.218Z,3.77
2019-05-12T02:59:49.463Z,3.77
2019-05-12T03:02:24.203Z,4.00
2019-05-12T03:04:55.419Z,3.50
2019-05-12T03:07:28.921Z,3.83
2019-05-12T03:10:04.999Z,3.87
2019-05-12T03:12:34.740Z,3.37
2019-05-12T03:15:07.990Z,3.53
2019-05-12T03:17:38.576Z,4.03
2019-05-12T03:20:11.216Z,3.23
2019-05-12T03:22:44.859Z,3.00
2019-05-12T03:25:24.008Z,3.57
2019-05-12T03:27:46.448Z,3.27
2019-05-12T03:30:19.424Z,3.03
2019-05-12T03:32:49.600Z,3.47
2019-05-12T03:35:20.161Z,3.20
2019-05-12T03:37:50.720Z,3.10
2019-05-12T03:40:24.795Z,3.05
2019-05-12T03:42:54.943Z,3.17
2019-05-12T03:45:25.842Z,2.83
2019-05-12T03:47:56.752Z,3.87
2019-05-12T03:50:27.917Z,3.33
2019-05-12T03:52:58.676Z,3.50
2019-05-12T03:55:35.985Z,3.20
2019-05-12T03:58:04.506Z,3.63
2019-05-12T04:00:35.937Z,3.53
2019-05-12T04:03:06.766Z,3.85
2019-05-12T04:05:37.633Z,4.37
2019-05-12T04:08:08.206Z,4.37
2019-05-12T04:10:38.925Z,4.87
2019-05-12T04:13:09.791Z,5.10
2019-05-12T04:15:40.361Z,5.53
2019-05-12T04:18:15.513Z,5.70
2019-05-12T04:20:45.329Z,5.73
2019-05-12T04:23:16.108Z,6.83
2019-05-12T04:25:52.957Z,6.43
2019-05-12T04:28:19.413Z,7.35
2019-05-12T04:30:50.015Z,6.47
2019-05-12T04:33:20.826Z,7.13
2019-05-12T04:35:51.687Z,7.10
2019-05-12T04:38:24.838Z,7.65
2019-05-12T04:40:55.467Z,6.97
2019-05-12T04:43:26.185Z,7.20
2019-05-12T04:45:57.005Z,7.17
2019-05-12T04:48:27.879Z,7.40
2019-05-12T04:50:58.423Z,7.23
2019-05-12T04:53:29.315Z,7.13
2019-05-12T04:56:11.457Z,6.60
2019-05-12T04:58:35.044Z,6.97
2019-05-12T05:01:06.368Z,6.73
2019-05-12T05:03:36.967Z,7.20
2019-05-12T05:06:08.190Z,7.00
2019-05-12T05:08:38.879Z,5.90
2019-05-12T05:11:09.787Z,6.42
2019-05-12T05:13:40.351Z,6.60
2019-05-12T05:16:14.388Z,7.53
2019-05-12T05:18:44.463Z,6.27
2019-05-12T05:21:15.099Z,6.37
2019-05-12T05:23:45.826Z,6.57
2019-05-12T05:26:24.514Z,7.20
2019-05-12T05:28:48.810Z,6.87
2019-05-12T05:31:19.750Z,6.00
2019-05-12T05:33:50.411Z,6.77
2019-05-12T05:36:21.099Z,6.80
2019-05-12T05:38:59.671Z,6.70
2019-05-12T05:41:24.202Z,6.60
2019-05-12T05:43:58.415Z,6.50
2019-05-12T05:46:27.532Z,6.65
2019-05-12T05:48:58.118Z,7.40
2019-05-12T05:51:29.042Z,6.40
2019-05-12T05:53:59.934Z,7.63
2019-05-12T05:56:39.815Z,6.58
2019-05-12T05:59:04.575Z,6.17
2019-05-12T06:01:40.050Z,5.53
2019-05-12T06:04:08.800Z,6.17
2019-05-12T06:06:42.737Z,6.40
2019-05-12T06:09:14.125Z,6.23
2019-05-12T06:11:44.997Z,5.70
2019-05-12T06:14:16.404Z,5.80
2019-05-12T06:16:47.066Z,5.20
2019-05-12T06:19:18.214Z,5.85
2019-05-12T06:21:49.079Z,5.30
2019-05-12T06:24:20.305Z,6.00
2019-05-12T06:27:00.003Z,4.97
2019-05-12T06:29:25.121Z,4.50
2019-05-12T06:32:00.083Z,4.80
2019-05-12T06:34:28.767Z,4.58
2019-05-12T06:37:03.040Z,4.40
2019-05-12T06:39:34.328Z,4.65
2019-05-12T06:42:12.773Z,4.10
2019-05-12T06:44:37.451Z,4.20
2019-05-12T06:47:08.399Z,3.60
2019-05-12T06:49:39.234Z,4.47
2019-05-12T06:52:09.880Z,4.63
2019-05-12T06:54:44.581Z,3.97
2019-05-12T06:57:22.125Z,4.40
2019-05-12T06:59:51.050Z,3.80
2019-05-12T07:02:18.347Z,3.87
2019-05-12T07:04:56.324Z,4.03
2019-05-12T07:07:25.569Z,4.07
2019-05-12T07:09:57.129Z,3.97
2019-05-12T07:12:32.648Z,3.63
2019-05-12T07:14:59.192Z,3.80
2019-05-12T07:17:50.004Z,3.42
2019-05-12T07:20:23.631Z,3.30
2019-05-12T07:22:54.787Z,3.40
2019-05-12T07:25:31.293Z,3.30
2019-05-12T07:28:00.806Z,3.20
2019-05-12T07:30:34.965Z,3.10
2019-05-12T07:33:04.849Z,3.60
2019-05-12T07:35:35.650Z,3.43
2019-05-12T07:38:06.292Z,3.00
2019-05-12T07:40:38.126Z,3.57
2019-05-12T07:43:18.595Z,3.33
2019-05-12T07:45:46.723Z,3.60
2019-05-12T07:48:17.609Z,3.20
2019-05-12T07:50:50.048Z,2.73
2019-05-12T07:53:20.546Z,2.75
2019-05-12T07:55:53.249Z,3.23
2019-05-12T07:58:24.468Z,2.75
2019-05-12T08:01:02.616Z,2.70
2019-05-12T08:03:27.920Z,2.23
2019-05-12T08:06:01.679Z,2.13
2019-05-12T08:08:31.380Z,2.83
2019-05-12T08:11:04.401Z,2.27
2019-05-12T08:13:37.584Z,2.20
2019-05-12T08:16:06.821Z,2.50
2019-05-12T08:18:41.002Z,2.00
2019-05-12T08:21:09.795Z,2.33
2019-05-12T08:23:40.395Z,2.13
2019-05-12T08:26:18.297Z,2.05
2019-05-12T08:28:44.993Z,2.10
2019-05-12T08:31:15.909Z,2.10
2019-05-12T08:33:46.512Z,2.23
2019-05-12T08:36:17.397Z,2.13
2019-05-12T08:38:48.222Z,1.60
2019-05-12T08:41:18.803Z,1.70
2019-05-12T08:43:54.897Z,2.27
2019-05-12T08:46:24.330Z,2.17
2019-05-12T08:48:57.862Z,2.20
2019-05-12T08:51:26.866Z,2.10
2019-05-12T08:54:02.316Z,2.07
2019-05-12T08:56:30.393Z,2.20
2019-05-12T08:59:01.274Z,2.40
2019-05-12T09:01:35.482Z,2.10
2019-05-12T09:04:11.129Z,1.97
2019-05-12T09:06:39.067Z,1.60
2019-05-12T09:09:10.066Z,2.20
2019-05-12T09:11:40.667Z,1.83
2019-05-12T09:14:14.619Z,1.75
2019-05-12T09:16:45.350Z,1.93
2019-05-12T09:19:23.894Z,1.90
2019-05-12T09:21:48.999Z,1.87
2019-05-12T09:24:26.876Z,1.77
2019-05-12T09:26:53.853Z,1.92
2019-05-12T09:29:25.271Z,1.70
2019-05-12T09:31:59.258Z,1.72
2019-05-12T09:34:29.382Z,1.90
2019-05-12T09:37:01.084Z,2.40
2019-05-12T09:39:34.011Z,1.40
2019-05-12T09:42:04.346Z,1.90
2019-05-12T09:44:35.022Z,1.80
2019-05-12T09:47:12.754Z,1.80
2019-05-12T09:49:39.526Z,2.10
2019-05-12T09:52:14.032Z,2.03
2019-05-12T09:54:44.417Z,1.70
2019-05-12T09:57:15.479Z,1.90
2019-05-12T09:59:55.537Z,1.83
2019-05-12T10:02:20.900Z,1.35
2019-05-12T10:04:57.899Z,1.40
2019-05-12T10:07:23.943Z,1.50
2019-05-12T10:09:58.932Z,1.97
2019-05-12T10:12:29.745Z,1.77
2019-05-12T10:14:59.540Z,1.70
2019-05-12T10:17:30.714Z,1.25
2019-05-12T10:20:01.384Z,1.47
2019-05-12T10:22:40.029Z,1.30
2019-05-12T10:25:10.455Z,1.70
2019-05-12T10:27:44.457Z,1.30
2019-05-12T10:30:18.466Z,1.57
2019-05-12T10:32:49.378Z,1.57
2019-05-12T10:35:21.880Z,1.35
2019-05-12T10:37:53.740Z,1.77
2019-05-12T10:40:24.848Z,1.20
2019-05-12T10:42:55.582Z,1.57
2019-05-12T10:45:28.871Z,1.37
2019-05-12T10:47:59.491Z,1.63
2019-05-12T10:50:30.751Z,1.50
2019-05-12T10:53:04.214Z,1.10
2019-05-12T10:55:34.136Z,1.77
2019-05-12T10:58:07.122Z,1.50
2019-05-12T11:00:37.067Z,1.37
2019-05-12T11:03:12.300Z,1.63
2019-05-12T11:05:40.106Z,1.30
2019-05-12T11:08:11.358Z,1.60
2019-05-12T11:10:42.664Z,1.37
2019-05-12T11:13:14.525Z,1.90
2019-05-12T11:15:49.461Z,1.47
2019-05-12T11:18:24.641Z,1.37
2019-05-12T11:20:54.445Z,1.40
2019-05-12T11:23:24.984Z,1.90
2019-05-12T11:25:55.698Z,1.40
2019-05-12T11:28:26.442Z,1.50
2019-05-12T11:30:57.057Z,1.70
2019-05-12T11:33:28.114Z,1.80
2019-05-12T11:35:58.723Z,1.37
2019-05-12T11:38:29.646Z,1.73
2019-05-12T11:41:00.598Z,1.53
2019-05-12T11:43:33.603Z,2.00
2019-05-12T11:46:03.718Z,1.60
2019-05-12T11:48:34.373Z,1.77
2019-05-12T11:51:05.066Z,1.77
2019-05-12T11:53:35.840Z,1.50
2019-05-12T11:56:07.894Z,2.17
2019-05-12T11:58:41.363Z,1.73
2019-05-12T12:01:14.586Z,1.70
2019-05-12T12:03:45.218Z,1.73
2019-05-12T12:06:17.132Z,1.50
2019-05-12T12:08:47.814Z,1.53
2019-05-12T12:11:24.764Z,1.65
2019-05-12T12:13:53.569Z,1.47
2019-05-12T12:16:24.882Z,1.75
2019-05-12T12:19:02.151Z,1.70
2019-05-12T12:21:28.124Z,1.87
2019-05-12T12:23:59.008Z,1.23
2019-05-12T12:26:30.955Z,1.70
2019-05-12T12:29:03.332Z,1.63
2019-05-12T12:31:53.786Z,1.63
2019-05-12T12:34:29.885Z,1.52
2019-05-12T12:36:57.320Z,1.83
2019-05-12T12:39:27.958Z,1.60
2019-05-12T12:42:00.631Z,1.80
2019-05-12T12:44:33.950Z,1.50
2019-05-12T12:47:03.831Z,1.57
2019-05-12T12:49:34.679Z,1.33
2019-05-12T12:52:05.489Z,1.30
2019-05-12T12:54:36.476Z,1.00
2019-05-12T12:57:09.951Z,1.37
2019-05-12T12:59:51.121Z,0.93
2019-05-12T13:02:17.459Z,1.20
2019-05-12T13:04:50.344Z,1.77
2019-05-12T13:07:24.099Z,1.50
2019-05-12T13:10:03.725Z,1.00
2019-05-12T13:12:36.216Z,1.30
2019-05-12T13:15:07.753Z,1.30
2019-05-12T13:17:41.824Z,1.20
2019-05-12T13:20:12.211Z,0.80
2019-05-12T13:22:44.410Z,1.00
2019-05-12T13:25:15.432Z,1.20
2019-05-12T13:27:46.634Z,1.10
2019-05-12T13:30:21.255Z,1.26
2019-05-12T13:32:50.522Z,1.00
2019-05-12T13:35:21.177Z,0.88
2019-05-12T13:37:56.410Z,0.90
2019-05-12T13:40:24.945Z,1.22
2019-05-12T13:42:55.837Z,1.20
2019-05-12T13:45:27.191Z,1.02
2019-05-12T13:47:57.857Z,1.07
2019-05-12T13:50:28.739Z,0.70
2019-05-12T13:53:01.160Z,0.80
2019-05-12T13:55:34.182Z,1.10
2019-05-12T13:58:08.920Z,1.00
2019-05-12T14:00:41.477Z,1.17
2019-05-12T14:03:13.947Z,0.90
2019-05-12T14:05:50.530Z,0.90
2019-05-12T14:08:17.372Z,0.90
2019-05-12T14:10:53.665Z,0.70
2019-05-12T14:13:21.049Z,1.20
2019-05-12T14:15:53.668Z,0.63
2019-05-12T14:18:24.307Z,0.80
2019-05-12T14:20:58.806Z,1.43
2019-05-12T14:23:27.306Z,0.82
2019-05-12T14:26:02.207Z,1.07
2019-05-12T14:28:30.327Z,1.17
2019-05-12T14:31:01.034Z,0.70
2019-05-12T14:33:35.900Z,0.77
2019-05-12T14:36:04.373Z,0.70
2019-05-12T14:38:34.973Z,0.80
2019-05-12T14:41:10.391Z,0.90
2019-05-12T14:43:38.350Z,0.60
2019-05-12T14:46:10.507Z,0.77
2019-05-12T14:48:46.451Z,0.80
2019-05-12T14:51:17.764Z,0.80
2019-05-12T14:53:49.041Z,0.80
2019-05-12T14:56:19.949Z,0.80
2019-05-12T14:58:56.353Z,0.67
2019-05-12T15:01:37.501Z,0.80
2019-05-12T15:03:57.090Z,0.60
2019-05-12T15:06:29.685Z,0.80
2019-05-12T15:09:00.375Z,0.80
2019-05-12T15:11:31.145Z,0.93
2019-05-12T15:14:03.142Z,0.80
2019-05-12T15:16:40.297Z,0.53
2019-05-12T15:19:06.308Z,0.60
2019-05-12T15:21:37.996Z,0.70
2019-05-12T15:24:17.001Z,0.80
2019-05-12T15:26:41.959Z,0.70
2019-05-12T15:29:19.933Z,0.78
2019-05-12T15:31:53.268Z,0.70
2019-05-12T15:34:33.759Z,0.80
2019-05-12T15:37:04.960Z,0.60
2019-05-12T15:39:35.774Z,0.57
2019-05-12T15:42:06.995Z,0.60
2019-05-12T15:44:38.076Z,0.77
2019-05-12T15:47:08.725Z,0.70
2019-05-12T15:49:39.455Z,1.00
2019-05-12T15:52:10.173Z,0.80
2019-05-12T15:54:45.708Z,0.70
2019-05-12T15:57:13.724Z,0.67
2019-05-12T15:59:44.662Z,0.80
2019-05-12T16:02:16.999Z,0.77
2019-05-12T16:04:48.672Z,0.80
2019-05-12T16:07:19.922Z,0.70
2019-05-12T16:09:50.594Z,0.60
2019-05-12T16:12:24.327Z,0.70
2019-05-12T16:14:54.187Z,0.80
2019-05-12T16:17:27.126Z,0.72
2019-05-12T16:19:57.951Z,0.78
2019-05-12T16:22:30.781Z,0.70
2019-05-12T16:25:04.141Z,0.63
2019-05-12T16:27:37.288Z,0.57
2019-05-12T16:30:08.943Z,0.80
2019-05-12T16:32:46.379Z,0.83
2019-05-12T16:35:14.596Z,0.80
2019-05-12T16:37:45.550Z,0.70
2019-05-12T16:40:16.551Z,0.87
2019-05-12T16:42:52.638Z,0.80
2019-05-12T16:45:20.137Z,0.90
2019-05-12T16:47:53.464Z,0.60
2019-05-12T16:50:27.766Z,1.20
2019-05-12T16:52:56.676Z,0.87
2019-05-12T16:55:27.637Z,1.20
2019-05-12T16:57:59.272Z,1.00
2019-05-12T17:00:31.769Z,0.80
2019-05-12T17:03:03.816Z,0.90
2019-05-12T17:05:36.625Z,1.00
2019-05-12T17:08:07.360Z,0.77
2019-05-12T17:10:38.283Z,0.60
2019-05-12T17:13:13.815Z,0.93
2019-05-12T17:15:48.736Z,0.93
2019-05-12T17:18:53.339Z,0.77
2019-05-12T17:21:24.721Z,0.60
2019-05-12T17:23:55.400Z,0.60
2019-05-12T17:26:26.329Z,0.67
2019-05-12T17:28:57.270Z,1.07
2019-05-12T17:31:28.454Z,0.50
2019-05-12T17:34:00.286Z,0.80
2019-05-12T17:36:34.558Z,0.85
2019-05-12T17:39:07.448Z,0.70
2019-05-12T17:41:45.043Z,0.70
2019-05-12T17:44:10.522Z,0.80
2019-05-12T17:46:41.129Z,0.70
2019-05-12T17:49:17.711Z,0.60
2019-05-12T17:51:45.851Z,0.57
2019-05-12T17:54:21.461Z,1.83
2019-05-12T17:56:49.184Z,0.80
2019-05-12T17:59:27.148Z,0.70
2019-05-12T18:01:53.753Z,0.63
2019-05-12T18:04:30.253Z,0.82
2019-05-12T18:06:57.766Z,1.03
2019-05-12T18:09:30.633Z,0.63
2019-05-12T18:12:01.647Z,0.70
2019-05-12T18:14:44.897Z,0.60
2019-05-12T18:17:08.620Z,0.77
2019-05-12T18:19:38.277Z,0.63
2019-05-12T18:22:09.549Z,0.90
2019-05-12T18:24:40.880Z,0.70
2019-05-12T18:27:13.845Z,0.80
2019-05-12T18:29:44.466Z,0.93
2019-05-12T18:32:15.411Z,0.83
2019-05-12T18:34:46.267Z,0.80
2019-05-12T18:37:17.500Z,0.78
2019-05-12T18:39:48.305Z,0.70
2019-05-12T18:42:19.333Z,0.70
2019-05-12T18:44:50.277Z,0.77
2019-05-12T18:47:23.337Z,0.60
2019-05-12T18:49:53.964Z,0.90
2019-05-12T18:52:29.352Z,0.80
2019-05-12T18:54:57.519Z,0.63
2019-05-12T18:57:28.494Z,0.80
2019-05-12T19:00:04.152Z,0.67
2019-05-12T19:02:33.499Z,0.80
2019-05-12T19:05:04.591Z,0.80
2019-05-12T19:07:39.727Z,0.80
2019-05-12T19:10:09.033Z,0.70
2019-05-12T19:12:39.804Z,0.73
2019-05-12T19:15:17.008Z,0.90
2019-05-12T19:17:46.010Z,0.83
2019-05-12T19:20:19.742Z,0.90
2019-05-12T19:22:57.317Z,1.00
2019-05-12T19:25:23.803Z,0.80
2019-05-12T19:28:01.926Z,0.60
2019-05-12T19:30:27.174Z,0.73
2019-05-12T19:32:59.994Z,1.00
2019-05-12T19:35:30.460Z,0.70
2019-05-12T19:38:01.963Z,0.70
2019-05-12T19:40:32.969Z,1.10
2019-05-12T19:43:08.089Z,1.10
2019-05-12T19:45:36.011Z,0.80
2019-05-12T19:48:06.998Z,1.00
2019-05-12T19:50:37.746Z,0.80
2019-05-12T19:53:10.333Z,0.80
2019-05-12T19:55:40.821Z,1.10
2019-05-12T19:58:12.658Z,1.00
2019-05-12T20:00:44.009Z,1.00
2019-05-12T20:03:14.787Z,1.40
2019-05-12T20:05:45.855Z,1.00
2019-05-12T20:08:16.748Z,1.20
2019-05-12T20:10:49.549Z,1.20
2019-05-12T20:13:19.876Z,1.00
2019-05-12T20:15:50.687Z,0.80
2019-05-12T20:18:23.652Z,1.00
2019-05-12T20:20:57.188Z,0.90
2019-05-12T20:23:28.008Z,1.10
2019-05-12T20:25:58.647Z,1.20
2019-05-12T20:28:29.576Z,1.00
2019-05-12T20:31:01.421Z,1.10
2019-05-12T20:33:34.442Z,0.97
2019-05-12T20:36:05.369Z,1.37
2019-05-12T20:38:37.730Z,1.50
2019-05-12T20:41:10.896Z,1.33
2019-05-12T20:43:44.174Z,1.27
2019-05-12T20:46:21.869Z,1.70
2019-05-12T20:48:46.534Z,2.22
2019-05-12T20:51:20.153Z,3.12
2019-05-12T20:53:50.275Z,2.70
2019-05-12T20:56:24.727Z,1.80
2019-05-12T20:58:54.466Z,1.30
2019-05-12T21:01:30.112Z,1.22
2019-05-12T21:03:58.037Z,1.10
2019-05-12T21:06:32.983Z,1.50
2019-05-12T21:09:03.461Z,1.63
2019-05-12T21:11:33.902Z,1.40
2019-05-12T21:14:09.999Z,1.50
2019-05-12T21:16:39.007Z,1.67
2019-05-12T21:19:11.169Z,1.37
2019-05-12T21:21:41.613Z,1.30
2019-05-12T21:24:14.222Z,1.45
2019-05-12T21:26:44.988Z,1.13
2019-05-12T21:29:19.022Z,1.40
2019-05-12T21:31:48.876Z,1.37
2019-05-12T21:34:22.476Z,1.10
2019-05-12T21:36:53.518Z,1.50
2019-05-12T21:39:24.422Z,1.00
2019-05-12T21:41:55.209Z,0.93
2019-05-12T21:44:25.743Z,1.32
2019-05-12T21:47:03.741Z,1.20
2019-05-12T21:49:29.176Z,0.93
2019-05-12T21:52:04.187Z,1.10
2019-05-12T21:54:36.186Z,1.00
2019-05-12T21:57:05.093Z,1.07
2019-05-12T21:59:39.620Z,1.07
2019-05-12T22:02:08.579Z,0.93
2019-05-12T22:04:41.719Z,1.02
2019-05-12T22:07:15.039Z,1.03
2019-05-12T22:09:47.183Z,1.30
2019-05-12T22:12:17.943Z,1.00
2019-05-12T22:14:48.669Z,0.83
2019-05-12T22:17:19.794Z,0.90
2019-05-12T22:19:50.557Z,1.00
2019-05-12T22:22:25.781Z,1.10
2019-05-12T22:24:54.085Z,0.90
2019-05-12T22:27:27.199Z,1.30
2019-05-12T22:29:57.724Z,1.22
2019-05-12T22:32:29.723Z,1.30
2019-05-12T22:35:00.553Z,1.53
2019-05-12T22:37:34.887Z,1.20
2019-05-12T22:40:06.344Z,0.93
2019-05-12T22:42:36.282Z,1.20
2019-05-12T22:45:07.302Z,1.17
2019-05-12T22:47:37.848Z,0.87
2019-05-12T22:50:09.203Z,1.17
2019-05-12T22:52:47.251Z,1.20
2019-05-12T22:55:14.066Z,1.40
2019-05-12T22:57:44.770Z,1.00
2019-05-12T23:00:21.577Z,1.13
2019-05-12T23:02:53.562Z,1.40
2019-05-12T23:05:24.252Z,1.05
2019-05-12T23:07:54.825Z,1.07
2019-05-12T23:10:25.969Z,0.93
2019-05-12T23:13:01.573Z,1.10
2019-05-12T23:15:29.152Z,1.23
2019-05-12T23:17:59.709Z,1.07
2019-05-12T23:20:31.290Z,1.30
2019-05-12T23:23:03.929Z,1.43
2019-05-12T23:25:35.256Z,1.10
2019-05-12T23:28:10.287Z,1.00
2019-05-12T23:30:38.207Z,1.10
2019-05-12T23:33:08.851Z,1.40
2019-05-12T23:35:39.813Z,0.97
2019-05-12T23:38:15.577Z,1.13
2019-05-12T23:40:43.391Z,1.03
2019-05-12T23:43:14.696Z,1.10
2019-05-12T23:45:45.309Z,1.20
2019-05-12T23:48:16.181Z,1.10
2019-05-12T23:50:46.890Z,1.20
2019-05-12T23:53:17.990Z,1.10
2019-05-12T23:55:48.806Z,1.10
2019-05-12T23:58:19.933Z,1.10
